Metar z połowy godziny Komunikat METAR ze strony awiacja.imgw.pl Metar G30 EPLK METAR EPLK 171730Z 22005KT CAVOK 21/10 Q1014 RMK 213 047 5/5=